sensor_id;sensor_type;location;lat;lon;timestamp;P1;durP1;ratioP1;P2;durP2;ratioP2
4317;SDS011;2172;53.576;9.934;2023-11-21T00:00:54;25.90;;;14.87;;
4317;SDS011;2172;53.576;9.934;2023-11-21T00:03:21;32.77;;;16.37;;
4317;SDS011;2172;53.576;9.934;2023-11-21T00:05:49;25.37;;;14.40;;
4317;SDS011;2172;53.576;9.934;2023-11-21T00:08:17;23.20;;;14.30;;
4317;SDS011;2172;53.576;9.934;2023-11-21T00:10:46;26.23;;;15.43;;
4317;SDS011;2172;53.576;9.934;2023-11-21T00:13:14;25.77;;;14.93;;
4317;SDS011;2172;53.576;9.934;2023-11-21T00:15:43;25.00;;;15.70;;
4317;SDS011;2172;53.576;9.934;2023-11-21T00:18:10;25.20;;;14.73;;
4317;SDS011;2172;53.576;9.934;2023-11-21T00:20:39;23.17;;;14.83;;
4317;SDS011;2172;53.576;9.934;2023-11-21T00:23:07;29.97;;;16.27;;
4317;SDS011;2172;53.576;9.934;2023-11-21T00:25:35;23.47;;;15.47;;
4317;SDS011;2172;53.576;9.934;2023-11-21T00:28:04;26.23;;;16.00;;
4317;SDS011;2172;53.576;9.934;2023-11-21T00:30:31;26.83;;;16.97;;
4317;SDS011;2172;53.576;9.934;2023-11-21T00:32:59;28.87;;;17.07;;
4317;SDS011;2172;53.576;9.934;2023-11-21T00:35:27;30.33;;;18.80;;
4317;SDS011;2172;53.576;9.934;2023-11-21T01:04:32;22.20;;;14.20;;
4317;SDS011;2172;53.576;9.934;2023-11-21T01:07:00;23.63;;;14.97;;
4317;SDS011;2172;53.576;9.934;2023-11-21T01:09:29;25.97;;;17.50;;
4317;SDS011;2172;53.576;9.934;2023-11-21T01:11:56;24.97;;;16.20;;
4317;SDS011;2172;53.576;9.934;2023-11-21T01:14:24;24.43;;;17.33;;
4317;SDS011;2172;53.576;9.934;2023-11-21T01:16:52;26.03;;;16.33;;
4317;SDS011;2172;53.576;9.934;2023-11-21T01:19:20;25.63;;;16.77;;
4317;SDS011;2172;53.576;9.934;2023-11-21T01:21:49;29.00;;;16.57;;
4317;SDS011;2172;53.576;9.934;2023-11-21T01:24:17;28.43;;;15.50;;
4317;SDS011;2172;53.576;9.934;2023-11-21T01:26:45;26.00;;;16.00;;
4317;SDS011;2172;53.576;9.934;2023-11-21T01:29:13;25.23;;;16.53;;
4317;SDS011;2172;53.576;9.934;2023-11-21T01:31:40;26.00;;;16.33;;
4317;SDS011;2172;53.576;9.934;2023-11-21T01:34:08;23.50;;;14.43;;
4317;SDS011;2172;53.576;9.934;2023-11-21T01:36:36;23.37;;;14.83;;
4317;SDS011;2172;53.576;9.934;2023-11-21T01:39:05;22.20;;;14.43;;
4317;SDS011;2172;53.576;9.934;2023-11-21T01:41:33;23.20;;;15.23;;
4317;SDS011;2172;53.576;9.934;2023-11-21T01:44:02;24.20;;;16.47;;
4317;SDS011;2172;53.576;9.934;2023-11-21T01:46:32;20.60;;;14.47;;
4317;SDS011;2172;53.576;9.934;2023-11-21T01:49:01;24.43;;;14.63;;
4317;SDS011;2172;53.576;9.934;2023-11-21T01:51:29;18.60;;;12.97;;
4317;SDS011;2172;53.576;9.934;2023-11-21T02:12:30;17.57;;;11.80;;
4317;SDS011;2172;53.576;9.934;2023-11-21T02:14:57;18.53;;;11.77;;
4317;SDS011;2172;53.576;9.934;2023-11-21T02:17:25;16.47;;;11.27;;
4317;SDS011;2172;53.576;9.934;2023-11-21T02:19:53;15.63;;;10.60;;
4317;SDS011;2172;53.576;9.934;2023-11-21T02:22:21;16.20;;;11.40;;
4317;SDS011;2172;53.576;9.934;2023-11-21T02:24:53;13.87;;;10.30;;
4317;SDS011;2172;53.576;9.934;2023-11-21T02:27:20;12.20;;;10.07;;
4317;SDS011;2172;53.576;9.934;2023-11-21T02:29:48;13.37;;;9.40;;
4317;SDS011;2172;53.576;9.934;2023-11-21T02:32:16;13.50;;;10.40;;
4317;SDS011;2172;53.576;9.934;2023-11-21T02:34:48;14.23;;;10.67;;
4317;SDS011;2172;53.576;9.934;2023-11-21T02:40:54;14.60;;;10.30;;
4317;SDS011;2172;53.576;9.934;2023-11-21T02:43:23;14.17;;;10.70;;
4317;SDS011;2172;53.576;9.934;2023-11-21T02:45:51;12.43;;;9.90;;
4317;SDS011;2172;53.576;9.934;2023-11-21T02:48:18;13.87;;;9.80;;
4317;SDS011;2172;53.576;9.934;2023-11-21T02:50:49;13.50;;;9.80;;
4317;SDS011;2172;53.576;9.934;2023-11-21T02:53:18;14.87;;;10.20;;
4317;SDS011;2172;53.576;9.934;2023-11-21T02:55:46;12.80;;;9.10;;
4317;SDS011;2172;53.576;9.934;2023-11-21T02:58:15;11.27;;;8.50;;
4317;SDS011;2172;53.576;9.934;2023-11-21T03:00:42;12.97;;;9.00;;
4317;SDS011;2172;53.576;9.934;2023-11-21T03:03:10;15.20;;;9.70;;
4317;SDS011;2172;53.576;9.934;2023-11-21T03:05:39;13.97;;;9.37;;
4317;SDS011;2172;53.576;9.934;2023-11-21T03:08:08;13.00;;;10.40;;
4317;SDS011;2172;53.576;9.934;2023-11-21T03:10:35;14.27;;;11.10;;
4317;SDS011;2172;53.576;9.934;2023-11-21T03:13:03;17.17;;;11.10;;
4317;SDS011;2172;53.576;9.934;2023-11-21T03:15:32;13.07;;;10.40;;
4317;SDS011;2172;53.576;9.934;2023-11-21T03:18:00;13.40;;;10.30;;
4317;SDS011;2172;53.576;9.934;2023-11-21T03:20:29;14.03;;;9.63;;
4317;SDS011;2172;53.576;9.934;2023-11-21T03:22:56;12.77;;;9.73;;
4317;SDS011;2172;53.576;9.934;2023-11-21T03:25:25;14.43;;;9.77;;
4317;SDS011;2172;53.576;9.934;2023-11-21T03:27:52;15.07;;;10.57;;
4317;SDS011;2172;53.576;9.934;2023-11-21T03:30:20;12.50;;;9.60;;
4317;SDS011;2172;53.576;9.934;2023-11-21T03:32:49;11.90;;;9.50;;
4317;SDS011;2172;53.576;9.934;2023-11-21T03:35:16;11.67;;;9.40;;
4317;SDS011;2172;53.576;9.934;2023-11-21T03:37:46;13.70;;;9.40;;
4317;SDS011;2172;53.576;9.934;2023-11-21T03:40:14;13.20;;;10.07;;
4317;SDS011;2172;53.576;9.934;2023-11-21T03:42:41;12.10;;;9.87;;
4317;SDS011;2172;53.576;9.934;2023-11-21T03:45:09;14.73;;;10.73;;
4317;SDS011;2172;53.576;9.934;2023-11-21T03:47:37;16.50;;;10.30;;
4317;SDS011;2172;53.576;9.934;2023-11-21T03:50:07;16.13;;;10.93;;
4317;SDS011;2172;53.576;9.934;2023-11-21T03:52:35;15.90;;;10.53;;
4317;SDS011;2172;53.576;9.934;2023-11-21T03:55:03;14.63;;;10.13;;
4317;SDS011;2172;53.576;9.934;2023-11-21T03:57:32;14.30;;;9.87;;
4317;SDS011;2172;53.576;9.934;2023-11-21T03:59:59;14.43;;;10.73;;
4317;SDS011;2172;53.576;9.934;2023-11-21T04:02:37;14.57;;;10.50;;
4317;SDS011;2172;53.576;9.934;2023-11-21T04:05:06;12.57;;;9.50;;
4317;SDS011;2172;53.576;9.934;2023-11-21T04:07:35;12.93;;;10.20;;
4317;SDS011;2172;53.576;9.934;2023-11-21T04:10:03;13.90;;;10.30;;
4317;SDS011;2172;53.576;9.934;2023-11-21T04:12:34;13.07;;;10.17;;
4317;SDS011;2172;53.576;9.934;2023-11-21T04:15:01;14.33;;;11.50;;
4317;SDS011;2172;53.576;9.934;2023-11-21T04:17:29;14.00;;;10.17;;
4317;SDS011;2172;53.576;9.934;2023-11-21T04:19:57;14.83;;;10.80;;
4317;SDS011;2172;53.576;9.934;2023-11-21T04:22:26;14.30;;;10.40;;
4317;SDS011;2172;53.576;9.934;2023-11-21T04:24:53;19.07;;;12.07;;
4317;SDS011;2172;53.576;9.934;2023-11-21T04:27:21;15.07;;;11.40;;
4317;SDS011;2172;53.576;9.934;2023-11-21T04:29:49;16.37;;;11.70;;
4317;SDS011;2172;53.576;9.934;2023-11-21T04:32:16;17.83;;;11.60;;
4317;SDS011;2172;53.576;9.934;2023-11-21T04:34:43;15.50;;;10.97;;
4317;SDS011;2172;53.576;9.934;2023-11-21T04:37:11;13.90;;;9.53;;
4317;SDS011;2172;53.576;9.934;2023-11-21T04:39:40;14.03;;;11.70;;
4317;SDS011;2172;53.576;9.934;2023-11-21T04:42:07;15.47;;;11.93;;
4317;SDS011;2172;53.576;9.934;2023-11-21T04:44:35;14.50;;;11.23;;
4317;SDS011;2172;53.576;9.934;2023-11-21T04:47:03;21.30;;;11.20;;
4317;SDS011;2172;53.576;9.934;2023-11-21T04:49:31;14.50;;;11.77;;
4317;SDS011;2172;53.576;9.934;2023-11-21T04:51:58;17.30;;;12.20;;
4317;SDS011;2172;53.576;9.934;2023-11-21T04:54:26;15.00;;;11.27;;
4317;SDS011;2172;53.576;9.934;2023-11-21T04:56:55;15.00;;;11.50;;
4317;SDS011;2172;53.576;9.934;2023-11-21T04:59:24;14.63;;;10.80;;
4317;SDS011;2172;53.576;9.934;2023-11-21T05:01:52;14.80;;;11.40;;
4317;SDS011;2172;53.576;9.934;2023-11-21T05:04:20;14.40;;;11.60;;
4317;SDS011;2172;53.576;9.934;2023-11-21T05:06:48;14.63;;;10.80;;
4317;SDS011;2172;53.576;9.934;2023-11-21T05:09:15;14.10;;;11.30;;
4317;SDS011;2172;53.576;9.934;2023-11-21T05:11:44;18.50;;;11.80;;
4317;SDS011;2172;53.576;9.934;2023-11-21T05:14:12;12.90;;;9.73;;
4317;SDS011;2172;53.576;9.934;2023-11-21T05:16:40;12.30;;;10.07;;
4317;SDS011;2172;53.576;9.934;2023-11-21T05:19:08;15.63;;;11.37;;
4317;SDS011;2172;53.576;9.934;2023-11-21T05:21:35;14.90;;;11.40;;
4317;SDS011;2172;53.576;9.934;2023-11-21T05:24:03;14.33;;;10.50;;
4317;SDS011;2172;53.576;9.934;2023-11-21T05:26:31;18.20;;;10.50;;
4317;SDS011;2172;53.576;9.934;2023-11-21T05:28:59;13.30;;;10.47;;
4317;SDS011;2172;53.576;9.934;2023-11-21T05:31:28;14.07;;;11.10;;
4317;SDS011;2172;53.576;9.934;2023-11-21T05:33:55;15.00;;;10.27;;
4317;SDS011;2172;53.576;9.934;2023-11-21T05:36:23;13.13;;;10.30;;
4317;SDS011;2172;53.576;9.934;2023-11-21T05:38:50;15.33;;;11.40;;
4317;SDS011;2172;53.576;9.934;2023-11-21T05:41:18;15.97;;;11.70;;
4317;SDS011;2172;53.576;9.934;2023-11-21T05:43:46;14.70;;;10.67;;
4317;SDS011;2172;53.576;9.934;2023-11-21T05:46:14;13.27;;;10.70;;
4317;SDS011;2172;53.576;9.934;2023-11-21T05:48:43;13.57;;;10.50;;
4317;SDS011;2172;53.576;9.934;2023-11-21T05:51:10;14.10;;;10.50;;
4317;SDS011;2172;53.576;9.934;2023-11-21T05:53:39;11.90;;;9.77;;
4317;SDS011;2172;53.576;9.934;2023-11-21T05:56:06;12.30;;;10.33;;
4317;SDS011;2172;53.576;9.934;2023-11-21T05:58:34;16.07;;;11.27;;
4317;SDS011;2172;53.576;9.934;2023-11-21T06:01:02;13.80;;;11.40;;
4317;SDS011;2172;53.576;9.934;2023-11-21T06:03:34;14.77;;;10.73;;
4317;SDS011;2172;53.576;9.934;2023-11-21T06:06:03;14.03;;;11.50;;
4317;SDS011;2172;53.576;9.934;2023-11-21T06:08:32;14.83;;;11.90;;
4317;SDS011;2172;53.576;9.934;2023-11-21T06:10:59;14.03;;;10.37;;
4317;SDS011;2172;53.576;9.934;2023-11-21T06:13:27;12.57;;;10.27;;
4317;SDS011;2172;53.576;9.934;2023-11-21T06:15:55;12.50;;;9.80;;
4317;SDS011;2172;53.576;9.934;2023-11-21T06:18:23;14.20;;;10.00;;
4317;SDS011;2172;53.576;9.934;2023-11-21T06:20:51;13.37;;;10.87;;
4317;SDS011;2172;53.576;9.934;2023-11-21T06:23:20;13.87;;;10.50;;
4317;SDS011;2172;53.576;9.934;2023-11-21T06:25:47;15.93;;;11.03;;
4317;SDS011;2172;53.576;9.934;2023-11-21T06:28:15;14.30;;;10.13;;
4317;SDS011;2172;53.576;9.934;2023-11-21T06:30:43;12.47;;;9.73;;
4317;SDS011;2172;53.576;9.934;2023-11-21T06:33:11;14.07;;;10.47;;
4317;SDS011;2172;53.576;9.934;2023-11-21T06:35:38;16.27;;;10.73;;
4317;SDS011;2172;53.576;9.934;2023-11-21T06:38:06;14.37;;;11.27;;
4317;SDS011;2172;53.576;9.934;2023-11-21T06:40:35;16.50;;;12.10;;
4317;SDS011;2172;53.576;9.934;2023-11-21T06:43:03;13.03;;;10.40;;
4317;SDS011;2172;53.576;9.934;2023-11-21T06:45:32;12.83;;;10.33;;
4317;SDS011;2172;53.576;9.934;2023-11-21T06:48:00;15.03;;;12.47;;
4317;SDS011;2172;53.576;9.934;2023-11-21T06:50:28;14.57;;;11.60;;
4317;SDS011;2172;53.576;9.934;2023-11-21T06:52:55;13.90;;;10.73;;
4317;SDS011;2172;53.576;9.934;2023-11-21T06:55:23;13.47;;;11.37;;
4317;SDS011;2172;53.576;9.934;2023-11-21T06:57:52;12.00;;;9.77;;
4317;SDS011;2172;53.576;9.934;2023-11-21T07:00:19;14.00;;;10.23;;
4317;SDS011;2172;53.576;9.934;2023-11-21T07:02:47;15.47;;;11.60;;
4317;SDS011;2172;53.576;9.934;2023-11-21T07:05:15;12.77;;;10.93;;
4317;SDS011;2172;53.576;9.934;2023-11-21T07:07:45;15.97;;;11.40;;
4317;SDS011;2172;53.576;9.934;2023-11-21T07:10:13;13.10;;;10.37;;
4317;SDS011;2172;53.576;9.934;2023-11-21T07:12:42;12.70;;;11.03;;
4317;SDS011;2172;53.576;9.934;2023-11-21T07:15:11;11.83;;;10.43;;
4317;SDS011;2172;53.576;9.934;2023-11-21T07:17:38;12.37;;;9.70;;
4317;SDS011;2172;53.576;9.934;2023-11-21T07:20:06;12.33;;;9.50;;
4317;SDS011;2172;53.576;9.934;2023-11-21T07:22:36;14.13;;;10.30;;
4317;SDS011;2172;53.576;9.934;2023-11-21T07:25:03;12.20;;;10.00;;
4317;SDS011;2172;53.576;9.934;2023-11-21T07:27:32;12.77;;;10.23;;
4317;SDS011;2172;53.576;9.934;2023-11-21T07:30:01;14.17;;;10.17;;
4317;SDS011;2172;53.576;9.934;2023-11-21T07:32:31;15.60;;;10.57;;
4317;SDS011;2172;53.576;9.934;2023-11-21T07:34:59;14.93;;;11.37;;
4317;SDS011;2172;53.576;9.934;2023-11-21T07:37:26;16.90;;;12.20;;
4317;SDS011;2172;53.576;9.934;2023-11-21T07:39:55;14.90;;;11.00;;
4317;SDS011;2172;53.576;9.934;2023-11-21T07:42:22;11.83;;;10.60;;
4317;SDS011;2172;53.576;9.934;2023-11-21T07:44:52;13.00;;;10.00;;
4317;SDS011;2172;53.576;9.934;2023-11-21T07:47:20;11.37;;;9.67;;
4317;SDS011;2172;53.576;9.934;2023-11-21T07:49:49;14.83;;;9.30;;
4317;SDS011;2172;53.576;9.934;2023-11-21T07:52:16;14.17;;;9.57;;
4317;SDS011;2172;53.576;9.934;2023-11-21T07:54:46;12.97;;;9.93;;
4317;SDS011;2172;53.576;9.934;2023-11-21T07:57:13;15.90;;;10.03;;
4317;SDS011;2172;53.576;9.934;2023-11-21T07:59:41;12.27;;;9.50;;
4317;SDS011;2172;53.576;9.934;2023-11-21T08:02:08;12.17;;;10.00;;
4317;SDS011;2172;53.576;9.934;2023-11-21T08:04:36;12.37;;;8.90;;
4317;SDS011;2172;53.576;9.934;2023-11-21T08:07:05;11.10;;;8.97;;
4317;SDS011;2172;53.576;9.934;2023-11-21T08:09:32;9.60;;;7.90;;
4317;SDS011;2172;53.576;9.934;2023-11-21T08:12:00;11.23;;;9.50;;
4317;SDS011;2172;53.576;9.934;2023-11-21T08:14:28;13.60;;;8.80;;
4317;SDS011;2172;53.576;9.934;2023-11-21T08:16:56;11.40;;;8.60;;
4317;SDS011;2172;53.576;9.934;2023-11-21T08:19:24;10.80;;;8.57;;
4317;SDS011;2172;53.576;9.934;2023-11-21T08:21:52;9.90;;;7.80;;
4317;SDS011;2172;53.576;9.934;2023-11-21T08:24:22;9.80;;;8.07;;
4317;SDS011;2172;53.576;9.934;2023-11-21T08:26:49;11.33;;;9.07;;
4317;SDS011;2172;53.576;9.934;2023-11-21T08:29:17;11.07;;;7.77;;
4317;SDS011;2172;53.576;9.934;2023-11-21T08:31:45;11.83;;;8.30;;
4317;SDS011;2172;53.576;9.934;2023-11-21T08:34:12;12.40;;;7.77;;
4317;SDS011;2172;53.576;9.934;2023-11-21T08:36:41;9.80;;;7.03;;
4317;SDS011;2172;53.576;9.934;2023-11-21T08:39:09;13.10;;;7.30;;
4317;SDS011;2172;53.576;9.934;2023-11-21T08:41:39;10.87;;;7.80;;
4317;SDS011;2172;53.576;9.934;2023-11-21T08:44:07;10.07;;;7.63;;
4317;SDS011;2172;53.576;9.934;2023-11-21T08:46:34;8.00;;;7.07;;
4317;SDS011;2172;53.576;9.934;2023-11-21T08:49:02;9.20;;;6.77;;
4317;SDS011;2172;53.576;9.934;2023-11-21T08:51:30;8.10;;;6.57;;
4317;SDS011;2172;53.576;9.934;2023-11-21T08:53:57;14.40;;;6.57;;
4317;SDS011;2172;53.576;9.934;2023-11-21T08:56:27;10.53;;;6.70;;
4317;SDS011;2172;53.576;9.934;2023-11-21T08:58:56;7.73;;;5.97;;
4317;SDS011;2172;53.576;9.934;2023-11-21T09:01:25;7.53;;;6.03;;
4317;SDS011;2172;53.576;9.934;2023-11-21T09:03:53;9.93;;;7.07;;
4317;SDS011;2172;53.576;9.934;2023-11-21T09:06:20;8.27;;;7.20;;
4317;SDS011;2172;53.576;9.934;2023-11-21T09:08:48;9.90;;;8.17;;
4317;SDS011;2172;53.576;9.934;2023-11-21T09:11:15;13.70;;;9.47;;
4317;SDS011;2172;53.576;9.934;2023-11-21T09:13:43;10.60;;;8.00;;
4317;SDS011;2172;53.576;9.934;2023-11-21T09:16:14;11.80;;;8.57;;
4317;SDS011;2172;53.576;9.934;2023-11-21T09:18:41;11.57;;;7.80;;
4317;SDS011;2172;53.576;9.934;2023-11-21T09:21:10;11.87;;;8.83;;
4317;SDS011;2172;53.576;9.934;2023-11-21T09:23:38;12.30;;;8.00;;
4317;SDS011;2172;53.576;9.934;2023-11-21T09:26:06;9.53;;;8.27;;
4317;SDS011;2172;53.576;9.934;2023-11-21T09:28:34;13.73;;;9.10;;
4317;SDS011;2172;53.576;9.934;2023-11-21T09:31:03;10.63;;;7.53;;
4317;SDS011;2172;53.576;9.934;2023-11-21T09:33:35;9.17;;;7.63;;
4317;SDS011;2172;53.576;9.934;2023-11-21T09:36:03;8.60;;;6.70;;
4317;SDS011;2172;53.576;9.934;2023-11-21T09:38:31;7.77;;;6.60;;
4317;SDS011;2172;53.576;9.934;2023-11-21T09:41:00;7.80;;;6.10;;
4317;SDS011;2172;53.576;9.934;2023-11-21T09:43:30;7.50;;;6.63;;
4317;SDS011;2172;53.576;9.934;2023-11-21T09:45:59;12.50;;;6.90;;
4317;SDS011;2172;53.576;9.934;2023-11-21T09:48:27;7.30;;;6.10;;
4317;SDS011;2172;53.576;9.934;2023-11-21T09:50:57;6.53;;;5.60;;
4317;SDS011;2172;53.576;9.934;2023-11-21T09:53:29;10.30;;;5.53;;
4317;SDS011;2172;53.576;9.934;2023-11-21T09:55:58;6.50;;;4.93;;
4317;SDS011;2172;53.576;9.934;2023-11-21T09:58:27;7.70;;;5.50;;
4317;SDS011;2172;53.576;9.934;2023-11-21T10:00:55;5.67;;;5.03;;
4317;SDS011;2172;53.576;9.934;2023-11-21T10:03:25;7.97;;;4.97;;
4317;SDS011;2172;53.576;9.934;2023-11-21T10:05:53;8.10;;;5.93;;
4317;SDS011;2172;53.576;9.934;2023-11-21T10:08:22;8.90;;;5.90;;
4317;SDS011;2172;53.576;9.934;2023-11-21T10:10:51;8.87;;;5.37;;
4317;SDS011;2172;53.576;9.934;2023-11-21T10:13:20;5.73;;;4.83;;
4317;SDS011;2172;53.576;9.934;2023-11-21T10:15:49;6.40;;;5.70;;
4317;SDS011;2172;53.576;9.934;2023-11-21T10:18:17;6.40;;;4.83;;
4317;SDS011;2172;53.576;9.934;2023-11-21T10:20:44;7.10;;;5.17;;
4317;SDS011;2172;53.576;9.934;2023-11-21T10:23:17;7.20;;;5.30;;
4317;SDS011;2172;53.576;9.934;2023-11-21T10:25:47;9.03;;;5.10;;
4317;SDS011;2172;53.576;9.934;2023-11-21T10:28:16;6.07;;;5.00;;
4317;SDS011;2172;53.576;9.934;2023-11-21T10:30:44;6.00;;;5.03;;
4317;SDS011;2172;53.576;9.934;2023-11-21T10:33:11;5.33;;;4.20;;
4317;SDS011;2172;53.576;9.934;2023-11-21T10:35:42;6.30;;;4.93;;
4317;SDS011;2172;53.576;9.934;2023-11-21T10:38:13;5.33;;;4.83;;
4317;SDS011;2172;53.576;9.934;2023-11-21T10:40:41;8.50;;;5.23;;
4317;SDS011;2172;53.576;9.934;2023-11-21T10:43:11;8.60;;;5.83;;
4317;SDS011;2172;53.576;9.934;2023-11-21T10:45:40;6.70;;;4.87;;
4317;SDS011;2172;53.576;9.934;2023-11-21T10:48:08;7.00;;;4.97;;
4317;SDS011;2172;53.576;9.934;2023-11-21T10:50:37;6.93;;;5.03;;
4317;SDS011;2172;53.576;9.934;2023-11-21T10:53:05;4.30;;;3.90;;
4317;SDS011;2172;53.576;9.934;2023-11-21T10:55:33;6.47;;;4.77;;
4317;SDS011;2172;53.576;9.934;2023-11-21T10:58:01;6.83;;;4.83;;
4317;SDS011;2172;53.576;9.934;2023-11-21T11:00:31;7.07;;;4.77;;
4317;SDS011;2172;53.576;9.934;2023-11-21T11:03:00;7.73;;;5.00;;
4317;SDS011;2172;53.576;9.934;2023-11-21T11:05:28;6.00;;;3.87;;
4317;SDS011;2172;53.576;9.934;2023-11-21T11:07:58;4.67;;;4.20;;
4317;SDS011;2172;53.576;9.934;2023-11-21T11:10:27;7.57;;;4.80;;
4317;SDS011;2172;53.576;9.934;2023-11-21T11:12:55;9.97;;;4.60;;
4317;SDS011;2172;53.576;9.934;2023-11-21T11:15:24;5.13;;;4.63;;
4317;SDS011;2172;53.576;9.934;2023-11-21T11:17:54;7.80;;;5.57;;
4317;SDS011;2172;53.576;9.934;2023-11-21T11:20:23;5.27;;;4.77;;
4317;SDS011;2172;53.576;9.934;2023-11-21T11:22:59;7.20;;;4.77;;
4317;SDS011;2172;53.576;9.934;2023-11-21T11:25:46;5.80;;;5.10;;
4317;SDS011;2172;53.576;9.934;2023-11-21T11:28:20;5.67;;;4.77;;
4317;SDS011;2172;53.576;9.934;2023-11-21T11:30:54;5.17;;;4.67;;
4317;SDS011;2172;53.576;9.934;2023-11-21T11:33:34;5.47;;;4.80;;
4317;SDS011;2172;53.576;9.934;2023-11-21T11:36:06;4.87;;;4.10;;
4317;SDS011;2172;53.576;9.934;2023-11-21T11:38:37;6.53;;;4.57;;
4317;SDS011;2172;53.576;9.934;2023-11-21T11:41:06;5.23;;;4.00;;
4317;SDS011;2172;53.576;9.934;2023-11-21T11:43:34;4.97;;;4.20;;
4317;SDS011;2172;53.576;9.934;2023-11-21T11:46:09;4.87;;;4.17;;
4317;SDS011;2172;53.576;9.934;2023-11-21T11:48:39;5.33;;;4.70;;
4317;SDS011;2172;53.576;9.934;2023-11-21T11:51:10;6.80;;;4.60;;
4317;SDS011;2172;53.576;9.934;2023-11-21T11:53:40;5.67;;;4.63;;
4317;SDS011;2172;53.576;9.934;2023-11-21T11:56:24;4.80;;;4.30;;
4317;SDS011;2172;53.576;9.934;2023-11-21T11:58:53;7.63;;;5.00;;
4317;SDS011;2172;53.576;9.934;2023-11-21T12:01:22;6.50;;;4.30;;
4317;SDS011;2172;53.576;9.934;2023-11-21T12:06:59;4.40;;;3.63;;
4317;SDS011;2172;53.576;9.934;2023-11-21T12:09:29;10.33;;;4.70;;
4317;SDS011;2172;53.576;9.934;2023-11-21T12:11:57;4.77;;;4.10;;
4317;SDS011;2172;53.576;9.934;2023-11-21T12:14:26;7.23;;;4.67;;
4317;SDS011;2172;53.576;9.934;2023-11-21T12:16:54;5.40;;;4.30;;
4317;SDS011;2172;53.576;9.934;2023-11-21T12:19:21;5.83;;;4.50;;
4317;SDS011;2172;53.576;9.934;2023-11-21T12:21:50;5.90;;;4.20;;
4317;SDS011;2172;53.576;9.934;2023-11-21T12:24:18;4.60;;;3.80;;
4317;SDS011;2172;53.576;9.934;2023-11-21T12:26:45;7.70;;;4.50;;
4317;SDS011;2172;53.576;9.934;2023-11-21T12:29:13;6.07;;;4.60;;
4317;SDS011;2172;53.576;9.934;2023-11-21T12:31:41;5.83;;;3.83;;
4317;SDS011;2172;53.576;9.934;2023-11-21T12:34:09;4.47;;;4.07;;
4317;SDS011;2172;53.576;9.934;2023-11-21T12:36:38;5.53;;;4.47;;
4317;SDS011;2172;53.576;9.934;2023-11-21T12:39:07;7.33;;;4.13;;
4317;SDS011;2172;53.576;9.934;2023-11-21T12:41:36;6.10;;;4.30;;
4317;SDS011;2172;53.576;9.934;2023-11-21T12:44:03;4.70;;;4.20;;
4317;SDS011;2172;53.576;9.934;2023-11-21T12:46:36;6.00;;;4.63;;
4317;SDS011;2172;53.576;9.934;2023-11-21T12:49:10;5.50;;;4.47;;
4317;SDS011;2172;53.576;9.934;2023-11-21T12:51:42;6.10;;;4.90;;
4317;SDS011;2172;53.576;9.934;2023-11-21T12:54:12;5.57;;;4.90;;
4317;SDS011;2172;53.576;9.934;2023-11-21T12:56:40;5.17;;;4.27;;
4317;SDS011;2172;53.576;9.934;2023-11-21T12:59:12;4.93;;;4.43;;
4317;SDS011;2172;53.576;9.934;2023-11-21T13:01:41;4.80;;;4.17;;
4317;SDS011;2172;53.576;9.934;2023-11-21T13:04:09;4.70;;;4.00;;
4317;SDS011;2172;53.576;9.934;2023-11-21T13:06:37;4.83;;;4.37;;
4317;SDS011;2172;53.576;9.934;2023-11-21T13:09:06;5.10;;;4.37;;
4317;SDS011;2172;53.576;9.934;2023-11-21T13:11:37;5.20;;;4.70;;
4317;SDS011;2172;53.576;9.934;2023-11-21T13:14:06;5.10;;;4.07;;
4317;SDS011;2172;53.576;9.934;2023-11-21T13:16:36;5.63;;;4.77;;
4317;SDS011;2172;53.576;9.934;2023-11-21T13:19:04;5.20;;;4.27;;
4317;SDS011;2172;53.576;9.934;2023-11-21T13:21:34;6.13;;;4.50;;
4317;SDS011;2172;53.576;9.934;2023-11-21T13:24:01;6.27;;;4.40;;
4317;SDS011;2172;53.576;9.934;2023-11-21T13:26:30;4.60;;;4.20;;
4317;SDS011;2172;53.576;9.934;2023-11-21T13:28:59;5.00;;;4.20;;
4317;SDS011;2172;53.576;9.934;2023-11-21T13:31:30;5.47;;;4.20;;
4317;SDS011;2172;53.576;9.934;2023-11-21T13:33:59;5.40;;;4.00;;
4317;SDS011;2172;53.576;9.934;2023-11-21T13:36:33;5.47;;;4.20;;
4317;SDS011;2172;53.576;9.934;2023-11-21T13:39:01;4.80;;;4.37;;
4317;SDS011;2172;53.576;9.934;2023-11-21T13:41:32;5.70;;;4.20;;
4317;SDS011;2172;53.576;9.934;2023-11-21T13:44:04;6.10;;;4.80;;
4317;SDS011;2172;53.576;9.934;2023-11-21T13:46:42;5.47;;;4.50;;
4317;SDS011;2172;53.576;9.934;2023-11-21T13:49:11;4.93;;;4.43;;
4317;SDS011;2172;53.576;9.934;2023-11-21T13:51:39;4.70;;;4.20;;
4317;SDS011;2172;53.576;9.934;2023-11-21T13:54:09;5.70;;;4.20;;
4317;SDS011;2172;53.576;9.934;2023-11-21T13:56:37;5.43;;;4.00;;
4317;SDS011;2172;53.576;9.934;2023-11-21T13:59:07;5.30;;;4.70;;
4317;SDS011;2172;53.576;9.934;2023-11-21T14:01:46;5.33;;;4.37;;
4317;SDS011;2172;53.576;9.934;2023-11-21T14:04:23;5.00;;;4.47;;
4317;SDS011;2172;53.576;9.934;2023-11-21T14:07:18;5.10;;;4.13;;
4317;SDS011;2172;53.576;9.934;2023-11-21T14:09:52;7.10;;;4.20;;
4317;SDS011;2172;53.576;9.934;2023-11-21T14:12:19;5.20;;;3.90;;
4317;SDS011;2172;53.576;9.934;2023-11-21T14:14:48;6.37;;;4.30;;
4317;SDS011;2172;53.576;9.934;2023-11-21T14:17:16;4.93;;;4.40;;
4317;SDS011;2172;53.576;9.934;2023-11-21T14:19:44;7.13;;;4.70;;
4317;SDS011;2172;53.576;9.934;2023-11-21T14:22:12;6.20;;;5.00;;
4317;SDS011;2172;53.576;9.934;2023-11-21T14:24:39;6.33;;;4.33;;
4317;SDS011;2172;53.576;9.934;2023-11-21T14:27:12;7.80;;;4.73;;
4317;SDS011;2172;53.576;9.934;2023-11-21T14:29:40;7.77;;;5.47;;
4317;SDS011;2172;53.576;9.934;2023-11-21T14:32:11;8.53;;;4.83;;
4317;SDS011;2172;53.576;9.934;2023-11-21T14:34:39;6.23;;;5.03;;
4317;SDS011;2172;53.576;9.934;2023-11-21T14:37:08;7.70;;;5.57;;
4317;SDS011;2172;53.576;9.934;2023-11-21T14:39:39;6.40;;;4.90;;
4317;SDS011;2172;53.576;9.934;2023-11-21T14:42:10;7.53;;;3.83;;
4317;SDS011;2172;53.576;9.934;2023-11-21T14:44:40;3.97;;;3.57;;
4317;SDS011;2172;53.576;9.934;2023-11-21T14:47:08;7.10;;;3.50;;
4317;SDS011;2172;53.576;9.934;2023-11-21T14:49:41;5.40;;;3.63;;
4317;SDS011;2172;53.576;9.934;2023-11-21T14:52:18;4.27;;;3.20;;
4317;SDS011;2172;53.576;9.934;2023-11-21T14:54:58;4.33;;;3.60;;
4317;SDS011;2172;53.576;9.934;2023-11-21T14:57:46;3.80;;;3.17;;
4317;SDS011;2172;53.576;9.934;2023-11-21T15:00:16;5.90;;;3.20;;
4317;SDS011;2172;53.576;9.934;2023-11-21T15:03:04;4.20;;;2.97;;
4317;SDS011;2172;53.576;9.934;2023-11-21T15:05:34;7.33;;;3.70;;
4317;SDS011;2172;53.576;9.934;2023-11-21T15:08:04;4.63;;;3.70;;
4317;SDS011;2172;53.576;9.934;2023-11-21T15:10:44;4.73;;;3.67;;
4317;SDS011;2172;53.576;9.934;2023-11-21T15:13:14;4.40;;;3.10;;
4317;SDS011;2172;53.576;9.934;2023-11-21T15:15:41;4.57;;;3.40;;
4317;SDS011;2172;53.576;9.934;2023-11-21T15:18:10;3.40;;;2.80;;
4317;SDS011;2172;53.576;9.934;2023-11-21T15:20:39;4.30;;;3.27;;
4317;SDS011;2172;53.576;9.934;2023-11-21T15:23:07;4.30;;;3.00;;
4317;SDS011;2172;53.576;9.934;2023-11-21T15:25:35;3.50;;;2.77;;
4317;SDS011;2172;53.576;9.934;2023-11-21T15:28:03;4.17;;;2.97;;
4317;SDS011;2172;53.576;9.934;2023-11-21T15:30:31;4.93;;;3.13;;
4317;SDS011;2172;53.576;9.934;2023-11-21T15:32:58;4.97;;;3.60;;
4317;SDS011;2172;53.576;9.934;2023-11-21T15:35:27;4.20;;;3.30;;
4317;SDS011;2172;53.576;9.934;2023-11-21T15:37:55;5.00;;;4.10;;
4317;SDS011;2172;53.576;9.934;2023-11-21T15:40:24;4.30;;;3.23;;
4317;SDS011;2172;53.576;9.934;2023-11-21T15:42:52;4.20;;;3.07;;
4317;SDS011;2172;53.576;9.934;2023-11-21T15:45:20;6.23;;;4.30;;
4317;SDS011;2172;53.576;9.934;2023-11-21T15:47:50;5.43;;;3.40;;
4317;SDS011;2172;53.576;9.934;2023-11-21T15:50:18;6.57;;;3.30;;
4317;SDS011;2172;53.576;9.934;2023-11-21T15:52:47;4.33;;;3.53;;
4317;SDS011;2172;53.576;9.934;2023-11-21T15:55:14;4.10;;;3.50;;
4317;SDS011;2172;53.576;9.934;2023-11-21T15:57:44;5.10;;;3.47;;
4317;SDS011;2172;53.576;9.934;2023-11-21T16:00:13;4.97;;;3.87;;
4317;SDS011;2172;53.576;9.934;2023-11-21T16:02:45;7.10;;;4.30;;
4317;SDS011;2172;53.576;9.934;2023-11-21T16:05:13;4.07;;;3.60;;